Time;durP1;ratioP1;P1;durP2;ratioP2;P2;SDS_P1;SDS_P2;PMS_P1;PMS_P2;Temp;Humidity;BMP_temperature;BMP_pressure;BME280_temperature;BME280_humidity;BME280_pressure;Samples;Min_cycle;Max_cycle;Signal;HPM_P1;HPM_P2
2021/12/13 00:00:32;;;;;;;166.47;68.05;;;;;;;-2.68;82.19;100983.09;2088378;82;21059;-73
2021/12/13 00:04:00;;;;;;;162.37;69.75;;;;;;;-2.70;82.13;100987.53;2077701;83;21120;-72
2021/12/13 00:07:10;;;;;;;154.72;67.92;;;;;;;-2.61;82.41;100990.22;2073114;83;21096;-73
2021/12/13 00:10:17;;;;;;;163.75;68.97;;;;;;;-2.52;82.38;100985.94;2084694;83;21045;-74
2021/12/13 00:13:23;;;;;;;153.12;65.03;;;;;;;-2.44;82.31;100989.53;2075262;83;20970;-73
2021/12/13 00:16:33;;;;;;;119.90;55.43;;;;;;;-2.45;82.06;100984.77;2085325;83;21598;-75
2021/12/13 00:19:43;;;;;;;144.17;63.08;;;;;;;-2.48;82.09;100990.09;2072894;83;21058;-71
2021/12/13 00:22:49;;;;;;;142.37;64.60;;;;;;;-2.55;82.14;100989.96;2082884;82;21123;-73
2021/12/13 00:25:55;;;;;;;135.95;62.10;;;;;;;-2.56;82.26;100980.45;2089685;82;21539;-72
2021/12/13 00:28:58;;;;;;;137.10;59.03;;;;;;;-2.58;82.36;100996.58;2076169;83;21062;-72
2021/12/13 00:32:05;;;;;;;126.12;57.93;;;;;;;-2.60;82.36;100986.23;2091542;83;21051;-71
2021/12/13 00:35:12;;;;;;;127.20;58.73;;;;;;;-2.60;82.51;100989.30;2084179;83;21071;-74
2021/12/13 00:38:16;;;;;;;120.08;57.05;;;;;;;-2.57;82.58;100989.17;2096882;83;21354;-72
2021/12/13 00:41:26;;;;;;;109.35;50.95;;;;;;;-2.51;82.67;100992.36;2085184;82;21073;-73
2021/12/13 00:44:37;;;;;;;125.72;56.42;;;;;;;-2.47;82.59;100992.26;2078424;83;21015;-73
2021/12/13 00:47:42;;;;;;;126.65;59.98;;;;;;;-2.51;82.54;100991.05;2088942;83;21618;-73
2021/12/13 00:51:13;;;;;;;132.00;60.00;;;;;;;-2.44;82.72;100991.67;2085174;82;21060;-71
2021/12/13 00:54:23;;;;;;;128.93;59.70;;;;;;;-2.29;82.99;100994.09;2088764;82;21654;-74
2021/12/13 00:57:41;;;;;;;131.97;59.08;;;;;;;-2.09;83.05;100995.85;2079385;83;21108;-73
2021/12/13 01:00:51;;;;;;;150.53;65.45;;;;;;;-1.94;82.99;100995.66;2091616;82;21167;-73
2021/12/13 01:03:53;;;;;;;175.10;73.17;;;;;;;-1.91;82.70;101004.20;2080597;83;21081;-72
2021/12/13 01:07:36;;;;;;;173.93;74.60;;;;;;;-1.98;82.44;101006.65;2083768;83;22217;-72
2021/12/13 01:10:52;;;;;;;142.77;63.40;;;;;;;-2.00;82.49;101013.66;2085058;82;21025;-72
2021/12/13 01:14:37;;;;;;;132.80;60.85;;;;;;;-2.03;82.66;101011.20;2089799;83;21029;-72
2021/12/13 01:18:02;;;;;;;122.55;58.92;;;;;;;-2.11;82.50;101006.77;2087964;82;20987;-72
2021/12/13 01:25:14;;;;;;;129.90;58.25;;;;;;;-2.15;82.73;101008.66;2094739;82;21016;-71
2021/12/13 01:28:20;;;;;;;118.70;56.23;;;;;;;-2.11;82.82;101014.56;2088402;83;21099;-73
2021/12/13 01:31:36;;;;;;;122.02;55.95;;;;;;;-2.12;82.96;101011.13;2087829;82;21504;-72
2021/12/13 01:34:38;;;;;;;124.60;58.28;;;;;;;-2.18;82.88;101012.69;2085408;82;21028;-73
2021/12/13 01:37:40;;;;;;;111.88;51.55;;;;;;;-2.21;83.00;101011.98;2089282;83;21093;-71
2021/12/13 01:40:46;;;;;;;112.68;52.50;;;;;;;-2.23;83.14;101009.89;2092478;83;21064;-72
2021/12/13 01:43:58;;;;;;;111.72;51.70;;;;;;;-2.25;83.18;101007.37;2085458;83;21013;-73
2021/12/13 01:47:13;;;;;;;121.37;56.10;;;;;;;-2.24;83.37;101005.61;2090080;82;21013;-73
2021/12/13 01:50:20;;;;;;;120.70;55.23;;;;;;;-2.21;83.44;101009.38;2096081;82;21053;-72
2021/12/13 01:53:53;;;;;;;120.70;58.05;;;;;;;-2.21;83.54;100996.37;2086161;83;21076;-73
2021/12/13 01:57:24;;;;;;;115.03;55.23;;;;;;;-2.20;83.58;100995.45;2085341;82;21052;-72
2021/12/13 02:00:21;;;;;;;104.45;51.18;;;;;;;-2.14;83.76;100996.06;2086412;83;21051;-72
2021/12/13 02:03:23;;;;;;;104.03;51.05;;;;;;;-2.08;83.86;100993.66;2089786;83;21022;-72
2021/12/13 02:06:48;;;;;;;117.40;56.37;;;;;;;-2.05;83.81;101000.03;2075411;83;21665;-73
2021/12/13 02:09:49;;;;;;;111.08;53.15;;;;;;;-2.07;83.83;100994.05;2091470;83;21067;-72
2021/12/13 02:12:57;;;;;;;110.48;54.15;;;;;;;-2.04;84.00;101003.85;2080577;83;21065;-73
2021/12/13 02:19:32;;;;;;;118.05;56.88;;;;;;;-1.91;84.21;101003.36;2080623;83;21057;-75
2021/12/13 02:22:44;;;;;;;106.45;50.48;;;;;;;-1.84;84.29;101006.06;2088501;82;21048;-71
2021/12/13 02:25:51;;;;;;;106.20;51.77;;;;;;;-1.84;84.30;100995.20;2085515;83;21033;-71
2021/12/13 02:28:58;;;;;;;110.97;51.28;;;;;;;-1.86;84.32;101003.55;2075590;83;21116;-71
2021/12/13 02:32:00;;;;;;;123.15;56.25;;;;;;;-1.88;84.41;101000.16;2085992;83;21033;-72
2021/12/13 02:35:06;;;;;;;111.52;51.18;;;;;;;-1.87;84.47;100994.50;2091119;82;21968;-73
2021/12/13 02:38:11;;;;;;;105.87;51.68;;;;;;;-1.82;84.60;100992.08;2075369;83;21002;-72
2021/12/13 02:41:15;;;;;;;111.45;55.20;;;;;;;-1.86;84.56;100995.75;2087220;82;21055;-73
2021/12/13 02:44:31;;;;;;;113.17;54.00;;;;;;;-1.78;84.72;100991.95;2095484;82;21615;-72
2021/12/13 02:47:39;;;;;;;122.85;56.23;;;;;;;-1.75;84.72;100999.62;2093065;83;21104;-72
2021/12/13 02:51:06;;;;;;;111.20;54.70;;;;;;;-1.75;84.73;100999.16;2075971;83;21150;-72
2021/12/13 02:54:22;;;;;;;113.28;54.73;;;;;;;-1.70;84.84;101002.87;2088326;82;21659;-74
2021/12/13 02:57:38;;;;;;;115.08;56.05;;;;;;;-1.59;84.90;101001.95;2076882;83;21492;-72
2021/12/13 03:01:19;;;;;;;113.25;54.85;;;;;;;-1.45;85.03;101000.03;2058931;84;21597;-72
2021/12/13 03:04:24;;;;;;;115.57;54.77;;;;;;;-1.36;84.91;101005.66;2079120;83;21626;-74
2021/12/13 03:07:33;;;;;;;104.75;54.20;;;;;;;-1.36;84.67;100991.34;2083707;83;21044;-72
2021/12/13 03:10:40;;;;;;;104.20;52.23;;;;;;;-1.34;84.73;101003.47;2059877;82;21563;-74
2021/12/13 03:13:42;;;;;;;112.92;54.65;;;;;;;-1.26;84.88;101002.20;2078986;82;21060;-73
2021/12/13 03:16:55;;;;;;;112.22;54.83;;;;;;;-1.25;84.70;101002.58;2089005;83;21017;-72
2021/12/13 03:20:20;;;;;;;115.55;57.13;;;;;;;-1.27;84.67;100994.45;2088489;83;21563;-72
2021/12/13 03:23:41;;;;;;;119.10;56.60;;;;;;;-1.31;84.66;100999.42;2090284;82;21007;-72
2021/12/13 03:27:19;;;;;;;108.30;53.00;;;;;;;-1.30;84.82;101004.55;2055042;82;21083;-74
2021/12/13 03:30:28;;;;;;;116.33;57.62;;;;;;;-1.29;84.87;101002.34;2087317;82;21052;-72
2021/12/13 03:33:53;;;;;;;132.67;62.98;;;;;;;-1.21;85.02;101005.88;2086344;83;21697;-72
2021/12/13 03:37:18;;;;;;;125.38;57.03;;;;;;;-1.10;85.12;101007.53;2086751;83;21068;-72
2021/12/13 03:40:21;;;;;;;112.68;55.90;;;;;;;-1.00;85.15;101007.52;2076555;82;21112;-79
2021/12/13 03:43:40;;;;;;;107.50;53.52;;;;;;;-0.97;84.92;101010.44;2094226;83;20993;-74
2021/12/13 03:46:46;;;;;;;110.22;53.73;;;;;;;-0.95;84.94;101001.63;2088229;83;21547;-72
2021/12/13 03:49:52;;;;;;;111.22;54.63;;;;;;;-0.96;84.81;101013.42;2071742;83;21428;-72
2021/12/13 03:52:59;;;;;;;108.95;54.42;;;;;;;-0.95;84.98;101008.61;2081887;83;22278;-72
2021/12/13 03:56:08;;;;;;;109.63;56.30;;;;;;;-0.92;84.97;101010.61;2071620;82;21139;-72
2021/12/13 03:59:19;;;;;;;110.17;52.58;;;;;;;-0.86;85.00;101012.55;2080748;83;21606;-72
2021/12/13 04:02:25;;;;;;;98.60;49.93;;;;;;;-0.80;85.04;101011.79;2075317;82;21591;-72
2021/12/13 04:05:30;;;;;;;105.85;53.70;;;;;;;-0.70;85.09;101012.22;2089892;83;21911;-74
2021/12/13 04:08:33;;;;;;;108.80;55.38;;;;;;;-0.69;84.91;101012.59;2078073;83;21069;-73
2021/12/13 04:11:35;;;;;;;111.13;56.33;;;;;;;-0.69;84.96;101009.98;2083234;82;21026;-72
2021/12/13 04:14:49;;;;;;;110.92;54.73;;;;;;;-0.63;85.02;101010.16;2086807;83;21373;-72
2021/12/13 04:18:41;;;;;;;106.90;53.63;;;;;;;-0.57;85.05;101010.69;2075465;82;21627;-72
2021/12/13 04:21:05;;;;;;;108.70;54.20;;;;;;;-0.54;84.92;101014.91;2060287;82;21657;-72
2021/12/13 04:24:18;;;;;;;110.72;54.05;;;;;;;-0.51;84.83;101015.64;2073603;82;20997;-75
2021/12/13 04:27:28;;;;;;;112.32;54.93;;;;;;;-0.53;84.82;101017.47;2083119;82;21073;-74
2021/12/13 04:30:54;;;;;;;117.70;57.58;;;;;;;-0.55;84.77;101020.59;2079037;83;21085;-72
2021/12/13 04:34:03;;;;;;;111.40;52.10;;;;;;;-0.52;84.88;101023.52;2090532;83;21085;-73
2021/12/13 04:37:05;;;;;;;107.97;52.60;;;;;;;-0.51;84.93;101013.03;2081074;82;21545;-72
2021/12/13 04:40:13;;;;;;;103.53;52.85;;;;;;;-0.40;85.10;101010.34;2059720;83;21562;-73
2021/12/13 04:43:18;;;;;;;132.20;62.88;;;;;;;-0.31;85.09;101015.09;2080420;82;21083;-73
2021/12/13 04:46:21;;;;;;;140.35;64.12;;;;;;;-0.26;84.99;101015.26;2088730;83;21100;-73
2021/12/13 04:49:26;;;;;;;123.20;55.63;;;;;;;-0.21;84.97;101008.52;2061895;83;21025;-72
2021/12/13 04:52:28;;;;;;;112.72;52.73;;;;;;;-0.23;84.80;101006.44;2081918;83;21026;-74
2021/12/13 04:55:35;;;;;;;104.63;54.10;;;;;;;-0.25;84.64;101008.30;2095357;83;22343;-72
2021/12/13 04:58:40;;;;;;;114.77;57.33;;;;;;;-0.28;84.60;101002.77;2085228;83;21073;-75
2021/12/13 05:01:51;;;;;;;116.17;59.42;;;;;;;-0.31;84.57;101005.53;2072809;83;21136;-74
2021/12/13 05:04:59;;;;;;;119.17;60.83;;;;;;;-0.29;84.72;101004.14;2085463;83;21073;-73
2021/12/13 05:08:02;;;;;;;122.82;59.98;;;;;;;-0.29;84.77;100998.92;2086911;82;21024;-72
2021/12/13 05:11:08;;;;;;;119.82;58.65;;;;;;;-0.29;84.74;100995.02;2084445;82;21068;-74
2021/12/13 05:14:12;;;;;;;113.55;57.05;;;;;;;-0.31;84.75;100998.15;2088944;82;21021;-72
2021/12/13 05:17:28;;;;;;;111.55;54.15;;;;;;;-0.31;84.71;100998.15;2083887;83;21134;-73
2021/12/13 05:20:38;;;;;;;113.72;54.85;;;;;;;-0.36;84.62;101004.91;2081883;82;21634;-72
2021/12/13 05:23:51;;;;;;;115.55;56.18;;;;;;;-0.32;84.85;101002.98;2090365;83;21073;-76
2021/12/13 05:27:10;;;;;;;126.65;62.25;;;;;;;-0.25;84.91;101009.61;2084006;83;21081;-73
2021/12/13 05:30:17;;;;;;;126.35;60.58;;;;;;;-0.23;84.91;101010.35;2079110;82;21127;-72
2021/12/13 05:33:21;;;;;;;122.40;61.00;;;;;;;-0.18;84.95;101014.89;2082397;82;21512;-75
2021/12/13 05:36:28;;;;;;;121.55;61.23;;;;;;;-0.20;84.82;101016.72;2084012;82;21099;-72
2021/12/13 05:39:30;;;;;;;117.20;57.48;;;;;;;-0.16;84.90;101023.48;2088122;82;21056;-72
2021/12/13 05:42:49;;;;;;;126.72;60.23;;;;;;;-0.10;84.89;101022.34;2084864;82;21479;-72
2021/12/13 05:46:07;;;;;;;123.70;59.50;;;;;;;-0.04;84.92;101028.55;2091763;82;21124;-74
2021/12/13 05:49:26;;;;;;;125.55;62.60;;;;;;;0.04;84.94;101021.66;2074437;82;21012;-75
2021/12/13 05:52:35;;;;;;;124.58;61.65;;;;;;;0.06;84.81;101027.19;2090861;83;21175;-72
2021/12/13 05:55:58;;;;;;;112.32;58.85;;;;;;;0.06;84.74;101024.58;2070951;83;21065;-73
2021/12/13 05:59:13;;;;;;;113.68;56.65;;;;;;;0.04;84.61;101030.32;2074535;83;21099;-75
2021/12/13 06:02:32;;;;;;;113.30;58.35;;;;;;;0.04;84.67;101032.09;2089389;83;21542;-73
2021/12/13 06:05:39;;;;;;;124.50;60.65;;;;;;;0.09;84.77;101037.93;2070211;83;21072;-72
2021/12/13 06:08:45;;;;;;;123.87;60.78;;;;;;;0.12;84.79;101030.78;2086683;82;21701;-74
2021/12/13 06:11:51;;;;;;;129.27;60.17;;;;;;;0.11;84.62;101036.06;2071563;82;21056;-74
2021/12/13 06:14:53;;;;;;;124.53;59.53;;;;;;;0.03;84.58;101036.47;2061957;83;21017;-72
2021/12/13 06:18:09;;;;;;;114.35;57.13;;;;;;;0.04;84.68;101045.14;2091498;82;21634;-72
2021/12/13 06:21:40;;;;;;;114.55;57.45;;;;;;;-0.01;84.58;101054.02;2074373;83;21042;-70
2021/12/13 06:24:46;;;;;;;122.07;57.65;;;;;;;-0.02;84.70;101044.52;2076435;83;21136;-71
2021/12/13 06:27:52;;;;;;;112.75;54.73;;;;;;;-0.04;84.75;101055.95;2086738;83;21519;-71
2021/12/13 06:31:08;;;;;;;111.55;57.83;;;;;;;-0.09;84.63;101049.64;2083058;82;21773;-73
2021/12/13 06:34:14;;;;;;;138.43;65.90;;;;;;;-0.11;84.78;101054.58;2079134;83;21402;-71
2021/12/13 06:37:35;;;;;;;127.53;60.03;;;;;;;-0.03;84.99;101057.19;2087674;83;21026;-71
2021/12/13 06:40:36;;;;;;;128.18;60.08;;;;;;;-0.06;84.85;101056.05;2068394;82;21017;-71
2021/12/13 06:43:49;;;;;;;119.20;57.65;;;;;;;-0.13;84.72;101060.33;2073126;83;21061;-71
2021/12/13 06:47:07;;;;;;;122.17;56.98;;;;;;;-0.16;84.78;101062.62;2093742;82;21160;-71
2021/12/13 06:50:14;;;;;;;135.40;64.22;;;;;;;-0.10;85.00;101061.02;2093399;83;21099;-71
2021/12/13 06:53:19;;;;;;;134.12;61.25;;;;;;;-0.01;85.09;101054.02;2092567;83;21017;-71
2021/12/13 06:56:26;;;;;;;132.75;62.33;;;;;;;0.08;85.08;101070.15;2081180;82;21520;-73
2021/12/13 06:59:36;;;;;;;128.93;60.52;;;;;;;0.09;85.02;101066.64;2081419;83;21053;-75
2021/12/13 07:02:49;;;;;;;129.17;62.27;;;;;;;0.05;84.89;101071.14;2071928;82;21033;-74
2021/12/13 07:05:57;;;;;;;117.93;53.90;;;;;;;0.09;85.06;101074.00;2098687;83;21081;-71
2021/12/13 07:09:10;;;;;;;122.02;56.50;;;;;;;0.17;85.14;101072.29;2078112;83;21037;-71
2021/12/13 07:12:16;;;;;;;118.05;59.25;;;;;;;0.22;85.11;101076.83;2087898;83;21076;-73
2021/12/13 07:15:44;;;;;;;134.18;61.23;;;;;;;0.27;85.07;101076.14;2083492;83;21006;-72
2021/12/13 07:19:03;;;;;;;127.25;60.08;;;;;;;0.35;85.11;101083.12;2085903;81;21013;-72
2021/12/13 07:22:07;;;;;;;125.55;59.90;;;;;;;0.41;85.08;101078.89;2080965;83;21029;-72
2021/12/13 07:25:16;;;;;;;130.10;60.63;;;;;;;0.42;84.95;101089.73;2075825;82;21085;-70
2021/12/13 07:28:34;;;;;;;126.95;58.78;;;;;;;0.43;85.01;101091.42;2084831;82;21071;-72
2021/12/13 07:31:37;;;;;;;113.55;54.20;;;;;;;0.43;84.94;101096.64;2080937;83;21044;-72
2021/12/13 07:35:02;;;;;;;114.28;55.98;;;;;;;0.40;84.83;101096.80;2074081;83;21065;-71
2021/12/13 07:38:11;;;;;;;123.57;58.77;;;;;;;0.43;84.96;101096.64;2084714;83;21109;-71
2021/12/13 07:41:13;;;;;;;128.90;61.95;;;;;;;0.47;84.91;101106.92;2077514;83;21472;-72
2021/12/13 07:44:41;;;;;;;130.27;61.18;;;;;;;0.47;84.93;101112.16;2074001;82;21010;-72
2021/12/13 07:47:44;;;;;;;148.53;66.87;;;;;;;0.54;85.02;101112.23;2083963;83;21088;-72
2021/12/13 07:51:03;;;;;;;133.05;61.42;;;;;;;0.59;85.01;101119.35;2068703;83;21369;-72
2021/12/13 07:54:15;;;;;;;123.90;60.05;;;;;;;0.60;84.83;101121.06;2090758;82;21597;-74
2021/12/13 07:57:30;;;;;;;122.33;58.40;;;;;;;0.59;84.80;101121.96;2083943;82;21009;-75
2021/12/13 08:00:37;;;;;;;120.33;56.58;;;;;;;0.62;84.75;101127.90;2084352;83;21024;-75
2021/12/13 08:03:53;;;;;;;124.45;58.30;;;;;;;0.59;84.66;101133.72;2087862;83;21111;-73
2021/12/13 08:07:02;;;;;;;119.72;58.65;;;;;;;0.64;84.77;101127.80;2079919;82;21564;-73
2021/12/13 08:10:09;;;;;;;132.10;62.05;;;;;;;0.70;84.78;101132.70;2090025;83;21076;-73
2021/12/13 08:13:17;;;;;;;137.10;63.87;;;;;;;0.70;84.72;101131.41;2087392;83;21044;-73
2021/12/13 08:16:29;;;;;;;133.20;62.23;;;;;;;0.61;84.44;101135.80;2094740;83;21071;-72
2021/12/13 08:19:33;;;;;;;119.47;57.48;;;;;;;0.59;84.67;101135.89;2071173;83;21619;-71
2021/12/13 08:22:42;;;;;;;108.47;51.58;;;;;;;0.54;84.55;101131.36;2075665;83;21107;-75
2021/12/13 08:25:46;;;;;;;98.10;51.05;;;;;;;0.49;84.53;101124.67;2073019;83;22479;-73
2021/12/13 08:28:52;;;;;;;103.17;50.55;;;;;;;0.47;84.58;101135.66;2077210;83;21448;-75
2021/12/13 08:31:56;;;;;;;93.20;46.05;;;;;;;0.41;84.54;101134.20;2088657;83;21037;-76
2021/12/13 08:35:03;;;;;;;112.20;53.60;;;;;;;0.39;84.62;101139.95;2067936;83;21119;-72
2021/12/13 08:38:04;;;;;;;118.97;57.93;;;;;;;0.36;84.80;101144.86;2091159;82;21168;-72
2021/12/13 08:41:17;;;;;;;111.92;54.15;;;;;;;0.38;84.93;101145.63;2076367;82;21080;-71
2021/12/13 08:44:30;;;;;;;100.75;50.60;;;;;;;0.32;84.77;101156.85;2080497;83;21047;-74
2021/12/13 08:47:43;;;;;;;111.37;54.42;;;;;;;0.26;84.81;101154.55;2087450;83;21032;-72
2021/12/13 08:50:54;;;;;;;108.72;53.17;;;;;;;0.29;85.12;101160.45;2068411;83;21085;-73
2021/12/13 08:54:07;;;;;;;103.12;51.90;;;;;;;0.39;85.26;101161.67;2074949;83;21610;-72
2021/12/13 08:57:50;;;;;;;108.20;55.20;;;;;;;0.56;85.46;101165.22;2076965;82;20994;-73
2021/12/13 09:01:08;;;;;;;112.97;55.25;;;;;;;0.67;85.31;101167.66;2079492;83;21344;-72
2021/12/13 09:04:14;;;;;;;125.85;58.83;;;;;;;0.71;85.06;101172.30;2085490;82;21096;-72
2021/12/13 09:07:20;;;;;;;119.47;56.70;;;;;;;0.82;85.26;101173.91;2094212;82;21112;-74
2021/12/13 09:10:39;;;;;;;114.15;55.48;;;;;;;0.92;85.19;101164.27;2085671;82;20997;-71
2021/12/13 09:13:49;;;;;;;107.35;54.58;;;;;;;0.96;85.04;101168.41;2093252;83;21157;-69
2021/12/13 09:17:10;;;;;;;115.80;54.80;;;;;;;1.01;85.05;101169.02;2074581;83;21030;-70
2021/12/13 09:20:25;;;;;;;113.00;55.15;;;;;;;1.05;84.94;101167.48;2079205;83;21075;-71
2021/12/13 09:23:33;;;;;;;109.55;54.40;;;;;;;1.15;85.05;101171.75;2075339;83;21086;-70
2021/12/13 09:26:40;;;;;;;119.65;57.67;;;;;;;1.25;85.02;101169.05;2091562;83;21132;-75
2021/12/13 09:29:52;;;;;;;124.20;57.27;;;;;;;1.31;84.91;101170.02;2082144;83;21037;-70
2021/12/13 09:33:14;;;;;;;112.05;54.73;;;;;;;1.38;84.90;101167.07;2073660;83;21035;-72
2021/12/13 09:36:32;;;;;;;117.45;56.08;;;;;;;1.38;84.75;101167.07;2072267;83;21148;-71
2021/12/13 09:39:34;;;;;;;121.77;55.23;;;;;;;1.28;84.54;101165.42;2078914;83;21088;-70
2021/12/13 09:42:53;;;;;;;110.42;51.68;;;;;;;1.27;84.67;101160.66;2076904;83;21524;-70
2021/12/13 09:45:55;;;;;;;112.03;54.05;;;;;;;1.33;84.74;101160.33;2081076;83;22003;-71
2021/12/13 09:49:02;;;;;;;117.82;58.17;;;;;;;1.37;84.73;101163.62;2089952;83;21664;-72
2021/12/13 09:52:22;;;;;;;119.30;57.30;;;;;;;1.42;84.68;101166.00;2084672;82;21056;-72
2021/12/13 09:55:34;;;;;;;123.87;61.77;;;;;;;1.47;84.73;101167.91;2085022;82;21069;-71
2021/12/13 09:58:53;;;;;;;118.87;58.15;;;;;;;1.48;84.62;101174.81;2078987;83;21117;-71
2021/12/13 10:01:59;;;;;;;118.75;56.45;;;;;;;1.47;84.57;101173.98;2085407;83;21143;-73
2021/12/13 10:05:09;;;;;;;112.32;55.03;;;;;;;1.46;84.55;101177.97;2093863;83;21069;-71
2021/12/13 10:08:19;;;;;;;104.67;52.15;;;;;;;1.46;84.58;101181.42;2088125;83;21018;-75
2021/12/13 10:11:32;;;;;;;95.85;47.90;;;;;;;1.50;84.62;101182.13;2095729;83;21086;-71
2021/12/13 10:14:42;;;;;;;97.65;49.45;;;;;;;1.63;84.80;101186.22;2088100;83;21024;-72
2021/12/13 10:17:50;;;;;;;102.85;50.28;;;;;;;1.70;84.72;101186.28;2087709;83;21104;-75
2021/12/13 10:20:56;;;;;;;106.95;53.15;;;;;;;1.76;84.67;101187.25;2078176;82;21183;-71
2021/12/13 10:24:06;;;;;;;116.05;56.30;;;;;;;1.74;84.35;101186.01;2076927;82;21118;-71
2021/12/13 10:27:12;;;;;;;122.28;55.98;;;;;;;1.73;84.19;101187.41;2082002;83;21088;-71
2021/12/13 10:30:28;;;;;;;109.87;52.03;;;;;;;1.69;84.20;101177.59;2085423;83;21079;-71
2021/12/13 10:33:32;;;;;;;101.30;49.90;;;;;;;1.67;84.12;101182.52;2092141;83;21096;-71
2021/12/13 10:36:36;;;;;;;91.70;44.48;;;;;;;1.67;84.25;101187.76;2081817;83;21103;-72
2021/12/13 10:39:43;;;;;;;85.35;42.17;;;;;;;1.73;84.41;101183.02;2076319;83;21107;-72
2021/12/13 10:42:58;;;;;;;88.52;45.00;;;;;;;1.78;84.30;101180.16;2084274;83;21117;-70
2021/12/13 10:46:12;;;;;;;94.55;46.02;;;;;;;1.73;84.19;101176.48;2086292;83;21575;-71
2021/12/13 10:49:21;;;;;;;95.80;47.48;;;;;;;1.73;84.14;101177.79;2077619;82;21102;-70
2021/12/13 10:52:30;;;;;;;98.12;48.75;;;;;;;1.71;84.25;101186.17;2081963;83;21068;-70
2021/12/13 10:55:37;;;;;;;100.27;48.60;;;;;;;1.76;84.42;101180.23;2089262;83;21544;-75
2021/12/13 10:58:46;;;;;;;95.72;46.83;;;;;;;1.78;84.41;101181.47;2088309;82;21120;-71
2021/12/13 11:01:53;;;;;;;95.60;47.00;;;;;;;1.71;84.16;101179.63;2092252;83;21195;-72
2021/12/13 11:05:02;;;;;;;94.72;47.35;;;;;;;1.71;84.25;101178.33;2094082;83;21137;-73
2021/12/13 11:08:07;;;;;;;100.38;48.75;;;;;;;1.67;84.21;101176.82;2084667;82;21024;-71
2021/12/13 11:11:34;;;;;;;100.15;48.70;;;;;;;1.69;84.21;101181.52;2085189;82;21010;-71
2021/12/13 11:14:41;;;;;;;102.58;49.73;;;;;;;1.72;84.37;101177.42;2087692;83;21602;-71
2021/12/13 11:17:45;;;;;;;100.53;50.75;;;;;;;1.85;84.56;101174.11;2068871;82;21041;-70
2021/12/13 11:20:50;;;;;;;100.53;48.78;;;;;;;1.94;84.49;101180.14;2095994;83;21266;-71
2021/12/13 11:23:55;;;;;;;94.22;47.35;;;;;;;1.97;84.48;101174.73;2069964;82;21064;-75
2021/12/13 11:27:01;;;;;;;92.15;46.55;;;;;;;1.96;84.33;101173.89;2079204;83;21060;-71
2021/12/13 11:30:13;;;;;;;90.92;45.75;;;;;;;1.95;84.33;101171.38;2091932;82;21074;-73
2021/12/13 11:33:43;;;;;;;95.45;46.15;;;;;;;1.94;84.34;101166.61;2081590;83;21026;-71
2021/12/13 11:37:27;;;;;;;99.92;47.90;;;;;;;2.00;84.53;101172.81;2073482;83;21126;-72
2021/12/13 11:41:09;;;;;;;100.40;49.88;;;;;;;2.05;84.62;101171.22;2074256;83;21159;-70
2021/12/13 11:44:39;;;;;;;111.68;52.38;;;;;;;2.22;84.82;101171.14;2086272;83;21085;-71
2021/12/13 11:48:11;;;;;;;119.70;52.98;;;;;;;2.29;84.66;101166.86;2064597;83;21525;-72
2021/12/13 11:51:37;;;;;;;108.95;50.70;;;;;;;2.31;84.48;101170.20;2034346;83;21594;-71
2021/12/13 11:55:11;;;;;;;100.45;49.75;;;;;;;2.31;84.44;101167.14;2080404;83;21087;-71
2021/12/13 11:58:33;;;;;;;132.82;57.15;;;;;;;2.28;84.29;101163.39;2091937;82;21128;-71
2021/12/13 12:02:12;;;;;;;146.95;65.20;;;;;;;2.22;84.20;101164.59;2080316;83;21123;-70
2021/12/13 12:06:07;;;;;;;128.78;56.18;;;;;;;2.23;84.20;101170.20;2095443;82;21020;-70
2021/12/13 12:09:42;;;;;;;116.17;52.15;;;;;;;2.21;84.23;101152.41;2036054;83;21588;-70
2021/12/13 12:13:11;;;;;;;117.87;54.60;;;;;;;2.24;84.31;101157.94;2083588;82;21173;-70
2021/12/13 12:16:14;;;;;;;119.57;53.73;;;;;;;2.25;84.33;101162.23;2061031;83;22526;-74
2021/12/13 12:19:23;;;;;;;123.67;54.05;;;;;;;2.27;84.34;101163.47;2090660;83;21096;-72
2021/12/13 12:22:54;;;;;;;103.87;44.60;;;;;;;2.29;84.35;101169.47;2090783;82;21385;-72
2021/12/13 12:26:00;;;;;;;101.27;45.60;;;;;;;2.21;84.07;101165.50;2096662;83;21075;-70
2021/12/13 12:29:08;;;;;;;104.07;50.43;;;;;;;2.11;84.06;101168.72;2078736;82;21580;-70
2021/12/13 12:32:27;;;;;;;116.20;48.68;;;;;;;2.13;84.26;101171.64;2088247;82;21168;-71
2021/12/13 12:35:38;;;;;;;101.53;50.03;;;;;;;2.18;84.33;101177.46;2073897;82;21420;-71
2021/12/13 12:39:01;;;;;;;108.42;50.43;;;;;;;2.23;84.41;101173.28;2079737;82;21650;-71
2021/12/13 12:42:38;;;;;;;106.52;47.85;;;;;;;2.26;84.44;101163.94;2076861;82;21061;-70
2021/12/13 12:45:51;;;;;;;106.00;48.28;;;;;;;2.32;84.63;101169.30;2090734;83;20994;-70
2021/12/13 12:48:59;;;;;;;107.45;49.75;;;;;;;2.36;84.56;101166.39;2083957;83;21112;-74
2021/12/13 12:52:09;;;;;;;118.53;51.18;;;;;;;2.47;84.67;101163.16;2089319;82;21005;-71
2021/12/13 12:55:17;;;;;;;124.95;57.35;;;;;;;2.59;84.70;101158.53;2089628;83;21013;-71
2021/12/13 12:58:30;;;;;;;132.45;60.43;;;;;;;2.72;84.75;101174.36;2084425;83;21114;-74
2021/12/13 13:01:59;;;;;;;134.25;62.48;;;;;;;2.79;84.60;101164.34;2074259;83;21062;-71
2021/12/13 13:05:05;;;;;;;137.80;62.33;;;;;;;2.83;84.46;101166.70;2083655;82;21075;-71
2021/12/13 13:08:08;;;;;;;130.95;60.05;;;;;;;2.80;84.18;101166.05;2085032;83;21091;-73
2021/12/13 13:11:27;;;;;;;112.83;50.35;;;;;;;2.72;84.12;101169.12;2069466;83;21489;-71
2021/12/13 13:14:30;;;;;;;106.75;48.45;;;;;;;2.65;84.07;101167.33;2082196;82;21113;-72
2021/12/13 13:17:38;;;;;;;103.60;47.55;;;;;;;2.64;84.15;101170.88;2075397;83;22340;-72
2021/12/13 13:20:44;;;;;;;93.92;42.38;;;;;;;2.66;84.27;101170.32;2089555;82;21050;-73
2021/12/13 13:23:51;;;;;;;100.90;44.80;;;;;;;2.71;84.27;101170.53;2089279;83;21013;-72
2021/12/13 13:26:53;;;;;;;111.22;46.25;;;;;;;2.73;84.26;101179.13;2083983;82;21068;-71
2021/12/13 13:29:56;;;;;;;104.45;45.33;;;;;;;2.77;84.23;101175.41;2077862;82;21628;-72
2021/12/13 13:32:57;;;;;;;111.00;44.85;;;;;;;2.74;84.17;101176.43;2078728;83;21062;-71
2021/12/13 13:36:00;;;;;;;108.52;48.75;;;;;;;2.72;84.04;101183.53;2088183;83;21379;-71
2021/12/13 13:39:27;;;;;;;103.87;46.13;;;;;;;2.71;84.07;101184.95;2085450;82;21090;-72
2021/12/13 13:42:52;;;;;;;114.55;45.73;;;;;;;2.65;84.00;101190.92;2079607;83;21026;-69
2021/12/13 13:45:55;;;;;;;112.10;48.25;;;;;;;2.59;83.96;101188.66;2081661;83;21029;-72
2021/12/13 13:49:02;;;;;;;111.70;48.08;;;;;;;2.58;84.02;101199.22;2092425;83;21032;-70
2021/12/13 13:52:23;;;;;;;117.10;50.12;;;;;;;2.61;84.13;101202.50;2085794;83;21095;-72
2021/12/13 13:55:50;;;;;;;109.32;48.40;;;;;;;2.67;84.26;101203.91;2078003;82;21669;-71
2021/12/13 13:59:00;;;;;;;120.30;52.23;;;;;;;2.72;84.12;101212.83;2094033;83;21123;-72
2021/12/13 14:02:07;;;;;;;114.72;51.00;;;;;;;2.66;83.90;101204.39;2085554;83;21088;-71
2021/12/13 14:05:11;;;;;;;119.30;52.50;;;;;;;2.59;83.77;101216.17;2078835;83;21072;-72
2021/12/13 14:08:26;;;;;;;117.60;51.70;;;;;;;2.53;83.77;101213.89;2085267;83;21045;-71
2021/12/13 14:11:28;;;;;;;99.17;47.45;;;;;;;2.43;83.68;101221.91;2090397;83;21590;-72
2021/12/13 14:14:50;;;;;;;107.92;45.58;;;;;;;2.38;83.85;101217.39;2089931;82;21630;-72
2021/12/13 14:18:07;;;;;;;107.85;49.65;;;;;;;2.37;83.91;101219.17;2082807;82;21491;-72
2021/12/13 14:21:13;;;;;;;107.87;48.00;;;;;;;2.34;83.77;101216.73;2078742;83;21096;-72
2021/12/13 14:24:15;;;;;;;107.65;47.70;;;;;;;2.33;83.88;101229.43;2058126;83;21025;-71
2021/12/13 14:27:28;;;;;;;103.17;45.08;;;;;;;2.34;83.95;101229.83;2077756;82;21033;-72
2021/12/13 14:30:43;;;;;;;113.62;45.80;;;;;;;2.35;83.96;101231.51;2091705;82;21032;-71
2021/12/13 14:33:50;;;;;;;103.87;46.25;;;;;;;2.34;83.96;101223.28;2088497;82;21010;-74
2021/12/13 14:36:57;;;;;;;94.05;44.23;;;;;;;2.29;83.86;101227.93;2068591;83;21016;-71